Time;durP1;ratioP1;P1;durP2;ratioP2;P2;SDS_P1;SDS_P2;PMS_P1;PMS_P2;Temp;Humidity;BMP_temperature;BMP_pressure;BME280_temperature;BME280_humidity;BME280_pressure;Samples;Min_cycle;Max_cycle;Signal;HPM_P1;HPM_P2
2022/08/17 00:00:39;;;;;;;5.68;3.70;;;23.30;58.80;;;;;;4991044;28;20038;-74
2022/08/17 00:03:13;;;;;;;6.60;3.72;;;23.10;59.00;;;;;;4993262;28;20080;-77
2022/08/17 00:05:44;;;;;;;4.75;3.67;;;23.00;59.40;;;;;;4992713;28;20034;-76
2022/08/17 00:08:13;;;;;;;7.68;3.90;;;22.90;59.80;;;;;;4992642;28;20023;-76
2022/08/17 00:10:40;;;;;;;8.95;3.80;;;22.90;60.20;;;;;;4991011;28;20026;-76
2022/08/17 00:13:20;;;;;;;9.18;4.10;;;22.80;60.90;;;;;;4992557;28;20633;-75
2022/08/17 00:15:46;;;;;;;5.63;4.45;;;22.60;61.00;;;;;;4991776;28;20486;-75
2022/08/17 00:18:12;;;;;;;4.72;3.90;;;22.60;61.20;;;;;;4991462;28;20026;-75
2022/08/17 00:20:38;;;;;;;4.32;3.92;;;22.50;61.50;;;;;;4991593;28;20507;-75
2022/08/17 00:23:11;;;;;;;7.75;4.30;;;22.50;61.50;;;;;;4991757;28;20034;-76
2022/08/17 00:25:38;;;;;;;4.93;4.15;;;22.40;61.40;;;;;;4991620;28;20037;-75
2022/08/17 00:28:05;;;;;;;6.20;4.40;;;22.30;61.80;;;;;;4991722;28;20219;-72
2022/08/17 00:30:30;;;;;;;6.10;3.92;;;22.30;62.10;;;;;;4990013;28;20062;-74
2022/08/17 00:32:56;;;;;;;6.15;4.25;;;22.20;62.00;;;;;;4991741;28;20054;-76
2022/08/17 00:35:24;;;;;;;4.32;3.92;;;22.20;62.30;;;;;;4991683;28;20030;-76
2022/08/17 00:37:50;;;;;;;9.43;4.30;;;22.20;62.70;;;;;;4991433;28;20030;-75
2022/08/17 00:40:17;;;;;;;6.18;4.47;;;22.20;62.70;;;;;;4991746;28;20109;-76
2022/08/17 00:42:48;;;;;;;4.82;4.32;;;22.20;62.60;;;;;;4991425;28;20057;-76
2022/08/17 00:45:16;;;;;;;7.03;4.03;;;22.20;62.60;;;;;;4991712;28;20395;-76
2022/08/17 00:47:42;;;;;;;5.10;4.38;;;22.20;62.60;;;;;;4990933;28;20026;-76
2022/08/17 00:50:17;;;;;;;9.02;4.70;;;22.20;62.70;;;;;;4990203;28;20054;-76
2022/08/17 00:52:53;;;;;;;5.68;4.28;;;22.20;62.50;;;;;;4990963;28;20473;-74
2022/08/17 00:55:21;;;;;;;4.75;3.65;;;22.20;62.00;;;;;;4995463;28;20081;-76
2022/08/17 00:57:52;;;;;;;4.82;4.28;;;22.10;62.50;;;;;;4993608;28;20031;-76
2022/08/17 01:00:25;;;;;;;5.53;4.60;;;22.10;62.70;;;;;;4994783;28;20046;-76
2022/08/17 01:02:55;;;;;;;7.28;3.97;;;22.00;62.90;;;;;;4982214;28;20035;-77
2022/08/17 01:05:25;;;;;;;6.72;4.18;;;22.00;63.10;;;;;;4995195;28;20563;-77
2022/08/17 01:07:52;;;;;;;8.37;4.50;;;21.90;63.30;;;;;;4995084;28;20504;-76
2022/08/17 01:10:22;;;;;;;7.80;4.65;;;21.80;63.50;;;;;;4993597;28;20431;-76
2022/08/17 01:12:48;;;;;;;9.10;4.53;;;21.70;63.90;;;;;;4993470;28;20392;-76
2022/08/17 01:15:15;;;;;;;7.97;4.32;;;21.60;64.00;;;;;;4994753;28;20030;-76
2022/08/17 01:17:43;;;;;;;4.82;4.43;;;21.60;64.50;;;;;;4993217;28;20509;-74
2022/08/17 01:20:09;;;;;;;5.93;4.38;;;21.50;64.50;;;;;;4994530;28;20408;-75
2022/08/17 01:22:35;;;;;;;5.28;4.55;;;21.50;64.50;;;;;;4994422;28;20035;-77
2022/08/17 01:25:04;;;;;;;8.00;4.35;;;21.50;64.60;;;;;;4994940;28;20038;-75
2022/08/17 01:27:30;;;;;;;5.22;4.38;;;21.50;64.70;;;;;;4994265;28;20026;-74
2022/08/17 01:29:59;;;;;;;6.50;4.55;;;21.50;64.90;;;;;;4990919;28;20023;-76
2022/08/17 01:32:27;;;;;;;5.43;4.45;;;21.40;65.00;;;;;;4994361;28;20026;-76
2022/08/17 01:34:54;;;;;;;13.18;6.18;;;21.30;65.20;;;;;;4994292;28;20026;-76
2022/08/17 01:37:30;;;;;;;27.45;14.13;;;21.20;65.50;;;;;;4994117;28;20551;-75
2022/08/17 01:40:02;;;;;;;13.13;6.20;;;21.20;65.80;;;;;;4994586;28;20122;-75
2022/08/17 01:42:53;;;;;;;6.85;5.00;;;21.10;66.00;;;;;;4994435;28;20041;-76
2022/08/17 01:45:24;;;;;;;7.63;4.88;;;21.00;66.00;;;;;;4994660;28;20031;-76
2022/08/17 01:47:51;;;;;;;7.10;4.40;;;21.00;66.30;;;;;;4994575;28;20042;-76
2022/08/17 01:50:21;;;;;;;7.70;4.72;;;20.90;66.40;;;;;;4994544;28;20023;-74
2022/08/17 01:52:52;;;;;;;7.88;4.53;;;20.90;66.50;;;;;;4994289;28;20026;-75
2022/08/17 01:55:23;;;;;;;5.97;4.53;;;20.90;66.90;;;;;;4994817;28;20552;-78
2022/08/17 01:57:49;;;;;;;5.60;4.32;;;20.80;66.80;;;;;;4994340;28;20114;-77
2022/08/17 02:00:15;;;;;;;6.72;4.28;;;20.80;66.90;;;;;;4993062;28;20480;-75
2022/08/17 02:02:40;;;;;;;7.68;4.88;;;20.80;66.90;;;;;;4994355;28;20031;-76
2022/08/17 02:05:07;;;;;;;7.80;4.60;;;20.80;67.10;;;;;;4993533;28;20202;-75
2022/08/17 02:07:35;;;;;;;4.97;4.50;;;20.70;67.00;;;;;;4993860;28;20039;-76
2022/08/17 02:10:01;;;;;;;8.18;4.43;;;20.70;67.30;;;;;;4993942;28;20018;-74
2022/08/17 02:12:27;;;;;;;6.90;4.65;;;20.70;67.40;;;;;;4993867;28;20019;-75
2022/08/17 02:14:53;;;;;;;8.23;4.75;;;20.60;67.30;;;;;;4993852;28;20034;-75
2022/08/17 02:17:18;;;;;;;5.55;4.75;;;20.60;67.30;;;;;;4993241;28;20046;-75
2022/08/17 02:19:44;;;;;;;5.60;4.38;;;20.60;67.40;;;;;;4993850;28;20030;-75
2022/08/17 02:22:09;;;;;;;4.97;4.40;;;20.50;67.50;;;;;;4993531;28;20031;-74
2022/08/17 02:24:37;;;;;;;9.07;4.60;;;20.50;67.70;;;;;;4993507;28;20485;-74
2022/08/17 02:27:03;;;;;;;5.55;4.25;;;20.50;67.70;;;;;;4993559;28;20057;-76
2022/08/17 02:29:29;;;;;;;6.25;4.80;;;20.50;67.90;;;;;;4993326;28;20023;-75
2022/08/17 02:31:57;;;;;;;5.15;4.65;;;20.40;68.00;;;;;;4993737;28;20018;-77
2022/08/17 02:34:23;;;;;;;9.60;4.50;;;20.40;68.10;;;;;;4992940;28;20011;-77
2022/08/17 02:36:52;;;;;;;8.23;4.82;;;20.30;68.50;;;;;;4993589;28;20105;-77
2022/08/17 02:39:18;;;;;;;6.38;4.53;;;20.20;68.60;;;;;;4992849;28;20045;-76
2022/08/17 02:41:44;;;;;;;4.72;4.32;;;20.20;68.70;;;;;;4993216;28;20374;-77
2022/08/17 02:44:10;;;;;;;7.90;4.97;;;20.20;69.00;;;;;;4991746;28;20030;-76
2022/08/17 02:46:36;;;;;;;6.10;4.38;;;20.10;68.80;;;;;;4991855;28;20072;-75
2022/08/17 02:49:03;;;;;;;5.22;4.72;;;20.00;68.90;;;;;;4992809;28;20030;-76
2022/08/17 02:51:28;;;;;;;7.63;5.30;;;20.00;69.00;;;;;;4993030;28;20069;-76
2022/08/17 02:53:54;;;;;;;5.75;5.07;;;20.00;69.30;;;;;;4992843;28;20030;-77
2022/08/17 02:56:20;;;;;;;7.43;4.80;;;20.00;69.40;;;;;;4992997;28;20384;-76
2022/08/17 02:58:45;;;;;;;5.35;4.85;;;20.00;69.70;;;;;;4987982;28;20033;-76
2022/08/17 03:01:11;;;;;;;8.38;4.47;;;20.00;69.80;;;;;;5011974;23;20050;-73
2022/08/17 03:03:38;;;;;;;5.78;4.88;;;19.90;69.60;;;;;;5000513;28;20037;-73
2022/08/17 03:06:06;;;;;;;52.35;29.83;;;19.90;69.70;;;;;;4998226;28;20018;-74
2022/08/17 03:08:33;;;;;;;59.17;32.50;;;19.90;69.50;;;;;;4993011;28;20037;-73
2022/08/17 03:10:58;;;;;;;149.38;77.65;;;19.90;69.70;;;;;;4992774;28;20022;-74
2022/08/17 03:13:25;;;;;;;203.45;110.78;;;20.00;69.40;;;;;;4993946;28;20111;-74
2022/08/17 03:15:50;;;;;;;53.33;25.85;;;19.90;69.50;;;;;;4992058;28;20022;-73
2022/08/17 03:18:19;;;;;;;115.43;56.85;;;20.00;69.20;;;;;;4991368;28;20519;-74
2022/08/17 03:20:45;;;;;;;78.15;34.67;;;20.00;69.10;;;;;;4992457;28;20050;-74
2022/08/17 03:23:11;;;;;;;15.98;9.43;;;20.00;68.90;;;;;;4992633;28;20061;-74
2022/08/17 03:25:41;;;;;;;15.90;7.53;;;20.00;68.60;;;;;;4992336;28;20093;-74
2022/08/17 03:28:08;;;;;;;5.20;4.60;;;20.10;68.60;;;;;;4992497;28;20081;-74
2022/08/17 03:30:34;;;;;;;6.13;4.80;;;20.10;68.30;;;;;;4992245;28;20045;-75
2022/08/17 03:33:02;;;;;;;7.10;4.65;;;20.10;68.10;;;;;;4992520;28;20030;-74
2022/08/17 03:35:30;;;;;;;6.80;4.90;;;20.00;68.50;;;;;;4992130;28;20022;-75
2022/08/17 03:37:56;;;;;;;7.50;5.13;;;20.00;68.30;;;;;;4993246;28;20026;-74
2022/08/17 03:40:22;;;;;;;6.25;4.32;;;19.90;68.40;;;;;;4993403;28;20118;-74
2022/08/17 03:42:51;;;;;;;7.18;4.65;;;19.80;68.60;;;;;;4993390;28;20465;-74
2022/08/17 03:56:41;;;;;;;6.45;4.68;;;19.80;68.60;;;;;;4992223;28;20037;-74
2022/08/17 03:57:05;;;;;;;6.50;4.63;;;19.90;68.50;;;;;;4959026;28;20038;-73
2022/08/17 03:59:32;;;;;;;6.18;5.00;;;19.80;68.70;;;;;;4982457;28;20042;-75
2022/08/17 04:02:02;;;;;;;6.55;4.60;;;19.80;68.80;;;;;;4992201;28;20493;-73
2022/08/17 04:04:28;;;;;;;6.53;4.50;;;19.70;68.70;;;;;;4992191;28;20101;-74
2022/08/17 04:06:54;;;;;;;6.60;4.90;;;19.70;68.90;;;;;;4990768;28;20054;-74
2022/08/17 04:09:20;;;;;;;5.03;4.53;;;19.70;68.90;;;;;;4991593;28;20022;-74
2022/08/17 04:11:46;;;;;;;10.75;5.53;;;19.80;69.00;;;;;;4992241;28;20030;-74
2022/08/17 04:14:11;;;;;;;6.97;4.85;;;19.80;68.90;;;;;;4991985;28;20477;-74
2022/08/17 04:16:37;;;;;;;5.82;4.85;;;19.90;69.00;;;;;;4990949;28;20440;-74
2022/08/17 04:19:04;;;;;;;5.60;4.45;;;20.00;68.60;;;;;;4990223;28;20065;-73
2022/08/17 04:21:29;;;;;;;5.13;4.63;;;20.00;68.60;;;;;;4992011;28;20054;-74
2022/08/17 04:23:56;;;;;;;6.93;4.68;;;20.00;68.30;;;;;;4991785;28;20093;-74
2022/08/17 04:26:23;;;;;;;6.18;5.25;;;20.10;68.20;;;;;;4991964;28;20029;-74
2022/08/17 04:28:49;;;;;;;5.55;5.03;;;20.20;68.20;;;;;;4994148;28;20353;-74
2022/08/17 04:31:15;;;;;;;8.60;4.43;;;20.30;67.90;;;;;;4996564;28;20018;-74
2022/08/17 04:33:44;;;;;;;6.53;4.40;;;20.80;66.80;;;;;;4996453;28;20037;-75
2022/08/17 04:36:12;;;;;;;7.55;4.50;;;21.50;64.90;;;;;;4994780;28;20547;-74
2022/08/17 04:38:40;;;;;;;10.13;4.57;;;22.20;62.30;;;;;;4995842;28;20112;-75
2022/08/17 04:43:54;;;;;;;9.05;5.45;;;23.60;57.70;;;;;;4996197;28;20452;-75
2022/08/17 04:46:23;;;;;;;20.88;13.38;;;24.50;55.20;;;;;;4995961;28;20027;-74
2022/08/17 04:48:53;;;;;;;17.40;11.30;;;25.40;52.30;;;;;;4993860;28;20027;-73
2022/08/17 04:51:24;;;;;;;17.65;10.40;;;26.10;50.60;;;;;;4995692;28;20019;-74
2022/08/17 04:53:58;;;;;;;13.07;8.95;;;26.30;49.60;;;;;;4995453;28;20052;-74
2022/08/17 04:56:25;;;;;;;25.17;15.35;;;25.90;50.50;;;;;;4995762;28;20050;-73
2022/08/17 04:58:54;;;;;;;19.83;12.80;;;24.80;52.40;;;;;;4991451;28;20019;-74
2022/08/17 05:01:22;;;;;;;20.27;13.20;;;24.10;55.10;;;;;;4995663;28;20061;-74
2022/08/17 05:03:47;;;;;;;18.90;13.00;;;23.50;57.30;;;;;;4995929;28;20041;-73
2022/08/17 05:06:13;;;;;;;23.05;13.60;;;23.80;57.00;;;;;;4996486;28;20030;-74
2022/08/17 05:08:39;;;;;;;20.75;13.25;;;25.10;53.50;;;;;;4996565;28;20065;-75
2022/08/17 05:11:05;;;;;;;25.30;14.82;;;26.30;50.30;;;;;;4998213;28;20022;-75
2022/08/17 05:13:31;;;;;;;20.70;13.57;;;27.70;46.60;;;;;;4998023;28;20027;-74
2022/08/17 05:16:02;;;;;;;14.60;8.95;;;28.70;44.50;;;;;;4997062;28;20141;-74
2022/08/17 05:18:29;;;;;;;10.50;6.80;;;29.60;41.50;;;;;;4996535;28;20042;-74
2022/08/17 05:20:55;;;;;;;7.38;5.07;;;30.40;39.90;;;;;;4996764;28;20133;-75
2022/08/17 05:23:23;;;;;;;6.32;3.55;;;30.80;37.90;;;;;;4996140;28;20058;-75
2022/08/17 05:25:50;;;;;;;6.97;4.10;;;31.50;37.40;;;;;;5002696;28;20022;-75
2022/08/17 05:28:18;;;;;;;5.65;3.40;;;32.40;35.70;;;;;;5002758;28;20026;-75
2022/08/17 05:30:45;;;;;;;6.38;3.60;;;32.90;34.20;;;;;;4999627;28;20485;-75
2022/08/17 05:33:26;;;;;;;4.03;3.13;;;32.80;34.50;;;;;;4997051;28;20045;-76
2022/08/17 05:35:54;;;;;;;8.35;3.00;;;32.90;34.30;;;;;;4997849;28;20086;-75
2022/08/17 05:38:22;;;;;;;5.95;3.55;;;33.50;33.00;;;;;;4996242;28;20034;-75
2022/08/17 05:40:48;;;;;;;6.28;3.20;;;33.80;32.90;;;;;;4995362;28;20030;-74
2022/08/17 05:43:21;;;;;;;7.22;3.38;;;34.20;32.10;;;;;;4996417;28;20423;-76
2022/08/17 05:46:14;;;;;;;6.35;3.30;;;34.50;31.60;;;;;;4994360;28;20019;-75
2022/08/17 05:48:52;;;;;;;6.97;3.67;;;34.90;31.40;;;;;;4994421;28;20053;-75
2022/08/17 05:51:46;;;;;;;7.80;3.17;;;35.10;30.60;;;;;;4982762;28;20029;-75
2022/08/17 05:54:52;;;;;;;5.10;4.05;;;34.90;30.30;;;;;;4994335;28;20025;-75
2022/08/17 05:57:34;;;;;;;8.02;4.38;;;35.40;30.10;;;;;;4994927;28;20037;-75
2022/08/17 06:00:21;;;;;;;7.97;4.97;;;33.80;32.00;;;;;;4992602;28;20038;-75
2022/08/17 06:03:09;;;;;;;11.77;5.55;;;32.50;34.50;;;;;;4993828;28;20031;-76
2022/08/17 06:05:43;;;;;;;11.48;4.65;;;32.30;35.40;;;;;;4993007;28;20037;-74
2022/08/17 06:08:37;;;;;;;10.25;5.60;;;33.00;34.30;;;;;;4993866;28;20034;-75
2022/08/17 06:11:15;;;;;;;8.82;5.07;;;31.90;36.00;;;;;;4993641;28;20369;-74
2022/08/17 06:13:43;;;;;;;9.95;5.57;;;30.90;37.80;;;;;;4993433;28;20023;-74
2022/08/17 06:16:11;;;;;;;12.55;5.35;;;30.80;38.20;;;;;;4979911;28;20480;-74
2022/08/17 06:19:17;;;;;;;10.23;5.13;;;31.30;37.80;;;;;;4992727;28;20041;-73
2022/08/17 06:21:48;;;;;;;13.43;5.03;;;33.50;34.30;;;;;;4983918;28;20034;-73
2022/08/17 06:24:17;;;;;;;11.55;3.90;;;34.60;32.70;;;;;;4993542;28;20029;-74
2022/08/17 06:26:44;;;;;;;8.80;4.72;;;35.80;31.00;;;;;;4993680;28;20022;-74
2022/08/17 06:29:25;;;;;;;9.20;4.50;;;34.40;32.40;;;;;;4990683;28;20125;-74
2022/08/17 06:31:51;;;;;;;10.75;4.60;;;34.40;32.30;;;;;;4996081;28;20022;-75
2022/08/17 06:34:19;;;;;;;8.73;3.80;;;34.90;31.40;;;;;;4994502;28;20413;-72
2022/08/17 06:37:03;;;;;;;8.60;4.22;;;35.10;31.10;;;;;;4993549;28;20426;-73
2022/08/17 06:39:44;;;;;;;5.65;3.50;;;34.50;31.80;;;;;;4993096;28;20105;-74
2022/08/17 06:42:24;;;;;;;9.07;3.90;;;35.20;31.00;;;;;;4993251;28;20101;-73
2022/08/17 06:45:09;;;;;;;10.48;4.05;;;35.40;30.70;;;;;;4993703;28;20023;-76
2022/08/17 06:47:41;;;;;;;9.90;4.10;;;35.40;30.50;;;;;;4992665;28;20038;-76
2022/08/17 06:50:34;;;;;;;12.68;3.78;;;36.00;29.70;;;;;;4992784;28;20033;-76
2022/08/17 06:53:17;;;;;;;6.28;4.03;;;35.20;30.50;;;;;;4981973;28;20081;-75
2022/08/17 06:55:56;;;;;;;8.85;3.78;;;33.90;32.10;;;;;;4993404;28;20033;-75
2022/08/17 06:58:24;;;;;;;6.90;4.15;;;33.70;32.90;;;;;;4994263;28;20038;-75
2022/08/17 07:00:52;;;;;;;7.38;4.13;;;32.90;34.00;;;;;;4993906;28;20505;-75
2022/08/17 07:04:03;;;;;;;8.25;4.03;;;32.00;35.90;;;;;;4994950;28;20029;-75
2022/08/17 07:06:36;;;;;;;9.93;4.10;;;32.80;34.30;;;;;;4982555;28;20018;-76
2022/08/17 07:09:13;;;;;;;10.88;4.22;;;32.60;34.50;;;;;;4992539;28;20489;-75
2022/08/17 07:11:52;;;;;;;8.18;3.70;;;32.90;34.30;;;;;;4991641;28;20034;-74
2022/08/17 07:14:30;;;;;;;8.80;4.40;;;33.50;33.30;;;;;;4992352;28;20022;-75
2022/08/17 07:17:00;;;;;;;7.82;3.70;;;34.90;31.40;;;;;;4992796;28;20077;-75
2022/08/17 07:19:33;;;;;;;5.65;3.80;;;36.00;29.10;;;;;;4992761;28;20483;-76
2022/08/17 07:22:29;;;;;;;16.35;8.10;;;36.70;28.30;;;;;;4992825;28;20022;-75
2022/08/17 07:25:01;;;;;;;8.82;3.35;;;38.10;27.30;;;;;;4983020;28;20049;-75
2022/08/17 07:27:35;;;;;;;9.30;4.28;;;38.40;26.10;;;;;;4991683;28;20022;-76
2022/08/17 07:30:05;;;;;;;6.28;3.72;;;37.40;26.80;;;;;;4992323;28;20636;-75
2022/08/17 07:32:39;;;;;;;11.93;3.45;;;37.10;27.60;;;;;;4992063;28;20029;-74
2022/08/17 07:35:11;;;;;;;6.95;4.03;;;36.60;28.20;;;;;;4992440;28;20030;-75
2022/08/17 07:37:44;;;;;;;10.32;4.05;;;37.00;27.90;;;;;;4991915;28;20543;-76
2022/08/17 07:40:15;;;;;;;8.40;3.75;;;36.20;28.80;;;;;;4990593;28;20393;-75
2022/08/17 07:42:42;;;;;;;8.40;3.63;;;37.00;28.30;;;;;;4992591;28;20400;-75
2022/08/17 07:48:17;;;;;;;9.15;3.88;;;38.40;26.70;;;;;;4992484;28;20149;-77
2022/08/17 07:50:38;;;;;;;8.05;3.65;;;37.90;26.80;;;;;;4991635;28;20093;-76
2022/08/17 07:53:24;;;;;;;6.97;3.65;;;37.90;26.50;;;;;;4992393;28;20481;-76
2022/08/17 07:55:52;;;;;;;13.07;4.00;;;36.80;28.20;;;;;;4991915;28;20019;-75
2022/08/17 07:58:22;;;;;;;7.13;3.28;;;37.40;27.80;;;;;;4991576;28;20045;-75
2022/08/17 08:01:10;;;;;;;10.73;4.03;;;38.10;26.70;;;;;;4992212;28;20038;-77
2022/08/17 08:03:45;;;;;;;4.60;3.00;;;38.20;26.00;;;;;;4991798;28;20456;-75
2022/08/17 08:06:23;;;;;;;6.00;2.80;;;37.00;26.80;;;;;;4992179;28;20022;-76
2022/08/17 08:08:54;;;;;;;8.35;3.40;;;37.90;26.60;;;;;;4989708;28;20113;-75
2022/08/17 08:11:32;;;;;;;5.38;2.90;;;37.70;25.60;;;;;;4989754;28;20524;-76
2022/08/17 08:14:28;;;;;;;6.82;2.63;;;35.90;27.50;;;;;;4991310;28;20074;-76
2022/08/17 08:16:58;;;;;;;4.57;2.67;;;37.00;26.30;;;;;;4991958;28;20026;-76
2022/08/17 08:19:24;;;;;;;5.07;3.22;;;37.20;26.20;;;;;;4993424;28;20022;-76
2022/08/17 08:22:17;;;;;;;5.40;2.58;;;37.90;25.70;;;;;;4991264;28;20026;-76
2022/08/17 08:25:04;;;;;;;5.97;3.30;;;39.10;24.20;;;;;;4980367;28;20045;-76
2022/08/17 08:27:42;;;;;;;5.38;2.90;;;36.60;26.50;;;;;;4968605;28;20580;-77
2022/08/17 08:30:14;;;;;;;7.15;3.03;;;36.70;27.10;;;;;;4991477;28;20088;-76
2022/08/17 08:32:59;;;;;;;7.85;3.08;;;37.00;26.30;;;;;;4992552;28;20062;-75
2022/08/17 08:35:32;;;;;;;6.50;3.22;;;37.10;26.30;;;;;;4991595;28;20392;-76
2022/08/17 08:38:06;;;;;;;6.45;3.03;;;34.90;28.10;;;;;;4991558;28;20049;-76
2022/08/17 08:41:18;;;;;;;5.72;2.85;;;34.50;29.30;;;;;;4991467;28;20018;-76
2022/08/17 08:44:17;;;;;;;5.22;2.60;;;35.60;27.90;;;;;;4991723;28;20022;-77
2022/08/17 08:46:52;;;;;;;6.40;3.22;;;37.00;26.50;;;;;;4991836;28;20030;-76
2022/08/17 08:49:39;;;;;;;5.22;3.17;;;37.00;26.30;;;;;;4991034;28;20033;-76
2022/08/17 08:52:14;;;;;;;3.88;3.38;;;36.40;26.80;;;;;;4991299;28;20026;-76
2022/08/17 08:54:49;;;;;;;3.53;2.60;;;36.70;26.40;;;;;;4991710;28;20026;-76
2022/08/17 08:57:26;;;;;;;7.28;2.83;;;37.40;25.90;;;;;;4991239;28;20445;-75
2022/08/17 09:02:47;;;;;;;10.57;4.88;;;36.90;25.90;;;;;;5008753;28;20050;-74
2022/08/17 09:05:41;;;;;;;4.10;2.78;;;37.70;25.50;;;;;;4994243;28;20029;-73
2022/08/17 09:08:41;;;;;;;3.17;2.67;;;38.40;24.30;;;;;;5011857;28;20415;-74
2022/08/17 09:11:25;;;;;;;6.22;2.88;;;37.20;25.00;;;;;;5006557;28;20019;-73
2022/08/17 09:13:53;;;;;;;4.25;3.10;;;36.40;26.60;;;;;;4976932;28;20122;-74
2022/08/17 09:16:34;;;;;;;4.35;2.95;;;35.40;28.30;;;;;;4979185;28;20015;-74
2022/08/17 09:19:40;;;;;;;3.97;2.97;;;35.90;27.40;;;;;;4980289;28;20032;-74
2022/08/17 09:22:30;;;;;;;3.35;2.63;;;35.40;27.80;;;;;;4993823;28;20034;-74
2022/08/17 09:25:20;;;;;;;5.43;3.30;;;35.80;27.40;;;;;;5010960;28;20065;-74
2022/08/17 09:28:02;;;;;;;6.47;3.00;;;35.70;27.70;;;;;;5011325;28;20026;-74
2022/08/17 09:30:44;;;;;;;4.85;2.80;;;36.70;26.80;;;;;;5015301;28;20026;-74
2022/08/17 09:33:14;;;;;;;7.38;2.88;;;37.50;26.30;;;;;;5012860;28;20023;-74
2022/08/17 09:35:49;;;;;;;6.53;2.50;;;37.90;24.70;;;;;;5012775;28;20030;-74
2022/08/17 09:38:39;;;;;;;4.90;2.90;;;38.00;25.30;;;;;;5010134;28;20041;-73
2022/08/17 09:41:20;;;;;;;4.53;2.40;;;38.10;24.60;;;;;;4999092;28;20026;-74
2022/08/17 09:43:57;;;;;;;7.45;2.92;;;37.10;25.10;;;;;;4994851;28;20061;-74
2022/08/17 09:46:46;;;;;;;4.38;2.58;;;36.60;25.80;;;;;;4994417;28;20064;-73
2022/08/17 09:49:32;;;;;;;7.30;2.83;;;36.40;26.20;;;;;;4994423;28;20023;-75
2022/08/17 09:52:06;;;;;;;6.47;2.38;;;34.90;27.20;;;;;;4976952;28;20033;-74
2022/08/17 09:54:38;;;;;;;7.80;3.00;;;34.00;28.00;;;;;;5001383;28;20022;-74
2022/08/17 09:57:17;;;;;;;5.50;2.63;;;34.00;28.20;;;;;;5000335;28;20101;-72
2022/08/17 10:00:25;;;;;;;6.30;2.22;;;34.70;26.30;;;;;;4998643;28;20033;-73
2022/08/17 10:03:08;;;;;;;4.60;2.38;;;35.30;26.60;;;;;;4994752;28;20030;-75
2022/08/17 10:05:55;;;;;;;2.75;2.13;;;36.10;25.60;;;;;;4994610;28;20030;-75
2022/08/17 10:08:30;;;;;;;4.28;2.10;;;36.60;24.60;;;;;;4976990;28;20495;-74
2022/08/17 10:14:19;;;;;;;5.22;2.58;;;37.40;24.00;;;;;;4994175;28;20400;-74
2022/08/17 10:16:54;;;;;;;5.55;2.70;;;37.40;24.60;;;;;;4993909;28;20034;-73
2022/08/17 10:19:34;;;;;;;6.47;2.70;;;37.20;24.60;;;;;;4994021;28;20061;-76
2022/08/17 10:27:43;;;;;;;3.67;2.28;;;35.80;26.00;;;;;;4995035;28;20053;-73
2022/08/17 10:30:12;;;;;;;5.45;2.40;;;34.70;25.90;;;;;;4997420;28;20033;-73
2022/08/17 10:32:45;;;;;;;3.17;2.15;;;33.90;27.30;;;;;;4975834;28;20037;-72
2022/08/17 10:35:32;;;;;;;3.55;2.25;;;33.40;28.40;;;;;;4993622;28;20022;-74
2022/08/17 10:38:20;;;;;;;5.32;2.33;;;33.40;27.90;;;;;;4993069;28;20496;-74
2022/08/17 10:40:56;;;;;;;2.40;2.08;;;33.50;28.50;;;;;;4993043;28;20053;-73
2022/08/17 10:43:47;;;;;;;3.20;2.00;;;33.70;28.70;;;;;;4975985;28;20158;-74
2022/08/17 10:46:51;;;;;;;6.82;2.40;;;34.30;27.20;;;;;;4993385;28;20097;-74
2022/08/17 10:49:16;;;;;;;4.30;2.20;;;34.30;26.90;;;;;;4975166;28;20504;-73
2022/08/17 10:51:47;;;;;;;2.60;2.35;;;34.20;27.30;;;;;;4993134;28;20037;-74
2022/08/17 10:54:44;;;;;;;5.90;2.75;;;34.00;27.70;;;;;;4992846;28;20023;-74
2022/08/17 10:57:28;;;;;;;4.55;2.30;;;33.20;28.60;;;;;;4992960;28;20481;-73
2022/08/17 11:00:21;;;;;;;2.85;2.40;;;33.10;28.80;;;;;;4996575;28;20049;-74
2022/08/17 11:02:56;;;;;;;5.00;2.30;;;33.10;29.20;;;;;;4991195;28;20080;-73
2022/08/17 11:05:28;;;;;;;3.35;2.28;;;33.40;28.70;;;;;;4999204;28;20022;-74
2022/08/17 11:08:10;;;;;;;5.43;2.30;;;32.90;29.00;;;;;;4992484;28;20061;-73
2022/08/17 11:10:55;;;;;;;3.85;2.20;;;32.60;29.10;;;;;;4975323;28;20393;-74
2022/08/17 11:13:36;;;;;;;3.33;2.50;;;32.50;29.90;;;;;;4992923;28;20418;-75
2022/08/17 11:16:33;;;;;;;3.47;2.03;;;32.70;29.50;;;;;;4992946;28;20029;-74
2022/08/17 11:19:07;;;;;;;3.63;2.50;;;33.00;30.50;;;;;;4993089;28;20070;-73
2022/08/17 11:21:38;;;;;;;3.78;2.15;;;33.40;29.10;;;;;;4992832;28;20406;-74
2022/08/17 11:24:26;;;;;;;5.80;2.38;;;33.60;28.10;;;;;;4992161;28;20040;-74
2022/08/17 11:27:32;;;;;;;7.32;2.78;;;33.70;28.50;;;;;;4992417;28;20021;-74
2022/08/17 11:30:00;;;;;;;5.03;2.50;;;34.00;27.80;;;;;;5005009;28;20029;-73
2022/08/17 11:32:38;;;;;;;7.82;2.50;;;34.10;28.30;;;;;;4990746;28;20097;-75
2022/08/17 11:35:22;;;;;;;5.20;2.33;;;34.20;28.70;;;;;;4975033;28;20022;-74
2022/08/17 11:37:47;;;;;;;4.30;2.15;;;34.40;28.40;;;;;;4974361;28;20475;-73
2022/08/17 11:40:26;;;;;;;3.03;2.22;;;34.30;27.70;;;;;;4992079;28;20049;-74
2022/08/17 11:43:06;;;;;;;5.03;2.42;;;34.20;27.40;;;;;;4992393;28;20027;-73
2022/08/17 11:46:01;;;;;;;5.13;2.17;;;33.60;27.80;;;;;;4974491;28;20387;-72
2022/08/17 11:52:10;;;;;;;2.65;2.30;;;33.50;27.90;;;;;;4992321;28;20345;-75
2022/08/17 11:54:47;;;;;;;5.75;2.70;;;33.10;28.80;;;;;;4992393;28;20150;-75
2022/08/17 11:57:24;;;;;;;2.92;2.22;;;33.20;28.80;;;;;;4991682;28;20432;-73
2022/08/17 11:59:50;;;;;;;2.80;2.22;;;32.90;29.10;;;;;;4995524;28;20022;-73
2022/08/17 12:02:31;;;;;;;6.18;2.30;;;33.10;28.80;;;;;;4991881;28;20034;-73
2022/08/17 12:05:26;;;;;;;7.15;2.03;;;32.60;29.40;;;;;;4992034;28;20038;-73
2022/08/17 12:08:03;;;;;;;5.93;2.55;;;32.60;29.70;;;;;;4991746;28;20022;-74
2022/08/17 12:10:33;;;;;;;5.65;2.08;;;32.80;29.10;;;;;;4991640;28;20065;-74
2022/08/17 12:13:11;;;;;;;4.30;2.00;;;33.00;29.20;;;;;;4992085;28;20379;-73
2022/08/17 12:15:48;;;;;;;3.80;2.45;;;33.30;28.10;;;;;;4991573;28;20026;-73
2022/08/17 12:18:19;;;;;;;5.75;2.03;;;33.30;28.10;;;;;;4991706;28;20086;-73
2022/08/17 12:20:59;;;;;;;4.75;2.15;;;33.40;27.90;;;;;;4991726;28;20492;-74
2022/08/17 12:23:46;;;;;;;2.60;2.40;;;33.50;28.70;;;;;;4991700;28;20026;-73
2022/08/17 12:26:31;;;;;;;3.10;2.20;;;33.70;28.00;;;;;;4974400;28;20049;-74
2022/08/17 12:29:14;;;;;;;3.95;2.20;;;33.90;28.00;;;;;;4994957;28;20399;-73
2022/08/17 12:31:47;;;;;;;3.60;1.80;;;34.00;27.50;;;;;;4991802;28;20049;-74
2022/08/17 12:34:26;;;;;;;4.03;2.13;;;34.20;28.80;;;;;;4974467;28;20246;-73
2022/08/17 12:37:00;;;;;;;3.55;2.42;;;34.30;27.40;;;;;;4992022;28;20119;-73
2022/08/17 12:39:28;;;;;;;6.30;2.60;;;34.20;27.20;;;;;;4974073;28;20400;-73
2022/08/17 12:41:57;;;;;;;2.78;2.10;;;34.00;27.00;;;;;;4991476;28;20038;-73
2022/08/17 12:44:28;;;;;;;4.18;2.30;;;33.70;27.60;;;;;;4991858;28;20400;-74
2022/08/17 12:46:58;;;;;;;5.57;2.40;;;34.00;27.90;;;;;;4991781;28;20026;-73
2022/08/17 12:49:27;;;;;;;4.78;2.35;;;34.10;27.40;;;;;;4993244;28;20054;-74
2022/08/17 12:52:04;;;;;;;2.20;1.80;;;34.30;27.10;;;;;;4995251;28;20018;-74
2022/08/17 12:54:52;;;;;;;4.75;2.35;;;34.50;26.70;;;;;;5008777;28;20337;-74
2022/08/17 12:57:20;;;;;;;6.00;2.15;;;34.50;27.20;;;;;;4994988;28;20018;-74
2022/08/17 12:59:50;;;;;;;4.05;2.30;;;34.80;26.50;;;;;;4998864;28;20416;-74
2022/08/17 13:02:27;;;;;;;2.88;2.00;;;34.90;26.20;;;;;;4994912;28;20030;-75
2022/08/17 13:04:55;;;;;;;3.70;1.63;;;34.80;25.90;;;;;;5004986;28;20076;-72
2022/08/17 13:07:31;;;;;;;6.03;2.35;;;34.90;27.00;;;;;;4994354;28;20022;-74
2022/08/17 13:09:57;;;;;;;3.35;2.45;;;35.00;27.40;;;;;;4977825;28;20030;-73
2022/08/17 13:12:30;;;;;;;3.60;2.08;;;35.10;26.10;;;;;;4995562;28;20069;-74
2022/08/17 13:14:56;;;;;;;2.58;2.05;;;34.80;26.20;;;;;;4996065;28;20022;-73
2022/08/17 13:17:28;;;;;;;5.70;2.40;;;34.40;27.10;;;;;;4978413;28;20282;-73
2022/08/17 13:19:54;;;;;;;3.85;2.25;;;34.10;27.50;;;;;;4995468;28;20022;-72
2022/08/17 13:22:23;;;;;;;4.93;2.30;;;34.00;27.30;;;;;;4995118;28;20026;-73
2022/08/17 13:24:52;;;;;;;5.03;2.20;;;33.70;27.90;;;;;;4994826;28;20023;-73
2022/08/17 13:27:20;;;;;;;3.00;2.40;;;33.90;28.70;;;;;;4994355;28;20101;-74
2022/08/17 13:29:47;;;;;;;4.72;2.20;;;33.90;28.30;;;;;;4999230;28;20032;-73
2022/08/17 13:32:18;;;;;;;2.92;2.10;;;34.00;28.00;;;;;;4995174;28;20026;-73
2022/08/17 13:34:56;;;;;;;3.55;2.17;;;34.10;28.40;;;;;;4978133;28;20627;-73
2022/08/17 13:37:33;;;;;;;4.90;2.17;;;34.30;28.10;;;;;;4995053;28;20033;-75
2022/08/17 13:40:08;;;;;;;2.97;1.88;;;34.20;27.50;;;;;;4995234;28;20101;-73
2022/08/17 13:42:44;;;;;;;4.65;2.33;;;34.40;27.70;;;;;;4994504;28;20022;-73
2022/08/17 13:45:28;;;;;;;2.15;1.98;;;34.60;27.80;;;;;;4995033;28;20023;-73
2022/08/17 13:48:06;;;;;;;4.90;2.53;;;34.70;26.40;;;;;;4994701;28;20725;-74
2022/08/17 13:50:32;;;;;;;4.00;1.85;;;34.70;26.70;;;;;;4977185;28;20019;-75